KSBD

San Bernardino International Airport

San Bernardino, California, USA
METAR KSBD 171545Z 00000KT 7SM SKC 18/M02 A3012
Observed Flight Rules
Oct-17 @ 15:45 UTC (3 hours ago) Visual Flight Rules
Visibility Clouds
7 miles
  • Clear skies
Temperatures Readings
Current 18°C / 64°F
Dewpoint -2°C / 28°F
Humidity 26%
Altimeter 30.12" Hg
Pressure 1020 hPa
Elevation 353
METAR KSBD 171545Z 00000KT 7SM SKC 18/M02 A3012
Observed Flight Rules
Oct-17 @ 15:45 UTC
(3 hours ago)
VFR
Clouds
  • Clear skies
Temperature Dewpoint
18°C / 64°F -2°C / 28°F
Humidity Altimeter Pressure
26% 30.12" Hg 1020 hPa